Time;durP1;ratioP1;P1;durP2;ratioP2;P2;SDS_P1;SDS_P2;PMS_P1;PMS_P2;Temp;Humidity;BMP_temperature;BMP_pressure;BME280_temperature;BME280_humidity;BME280_pressure;Samples;Min_cycle;Max_cycle;Signal;HPM_P1;HPM_P2
2022/03/01 00:02:13;;;;;;;49.30;13.23;;;0.60;20.50;;;;;;5065789;28;20888;-60
2022/03/01 00:04:40;;;;;;;50.10;12.80;;;0.60;20.50;;;;;;5066788;28;20477;-62
2022/03/01 00:07:08;;;;;;;48.10;11.57;;;0.60;20.50;;;;;;5067913;28;20840;-60
2022/03/01 00:09:35;;;;;;;49.30;11.57;;;0.60;20.60;;;;;;5065339;28;20469;-60
2022/03/01 00:12:02;;;;;;;51.63;12.10;;;0.60;20.50;;;;;;5062425;28;20465;-60
2022/03/01 00:14:29;;;;;;;52.60;12.43;;;0.50;20.90;;;;;;5063380;28;20484;-60
2022/03/01 00:16:56;;;;;;;49.13;14.40;;;0.50;20.90;;;;;;5067871;28;20449;-60
2022/03/01 00:19:23;;;;;;;47.33;11.60;;;0.40;21.00;;;;;;5067038;28;21164;-61
2022/03/01 00:21:50;;;;;;;52.87;14.40;;;0.40;21.20;;;;;;5062603;28;20469;-60
2022/03/01 00:24:18;;;;;;;51.13;11.83;;;0.40;21.20;;;;;;5064450;28;20485;-61
2022/03/01 00:26:45;;;;;;;53.73;14.43;;;0.30;21.40;;;;;;5063917;28;20998;-61
2022/03/01 00:29:12;;;;;;;50.43;13.53;;;0.30;21.70;;;;;;5060267;28;20453;-60
2022/03/01 00:31:39;;;;;;;49.97;12.20;;;0.30;21.60;;;;;;5062658;28;20473;-60
2022/03/01 00:34:06;;;;;;;51.30;13.13;;;0.20;21.60;;;;;;5060869;28;20484;-60
2022/03/01 00:36:33;;;;;;;47.90;12.63;;;0.20;21.70;;;;;;5064294;28;20476;-60
2022/03/01 00:39:00;;;;;;;51.67;13.20;;;0.20;21.80;;;;;;5064883;28;20472;-60
2022/03/01 00:41:28;;;;;;;50.80;14.60;;;0.20;22.10;;;;;;5065250;28;20469;-59
2022/03/01 00:43:55;;;;;;;52.60;12.60;;;0.20;22.20;;;;;;5066982;28;20449;-60
2022/03/01 00:46:22;;;;;;;48.33;12.43;;;0.20;22.20;;;;;;5067384;28;20449;-60
2022/03/01 00:48:49;;;;;;;54.33;12.53;;;0.10;22.00;;;;;;5066345;28;20469;-60
2022/03/01 00:51:16;;;;;;;50.93;13.37;;;0.10;22.10;;;;;;5067834;28;20441;-61
2022/03/01 00:53:43;;;;;;;50.33;13.30;;;0.10;22.20;;;;;;5064183;28;20955;-60
2022/03/01 00:56:09;;;;;;;49.33;12.87;;;0.10;22.10;;;;;;5066897;28;20970;-61
2022/03/01 00:58:37;;;;;;;55.57;13.13;;;0.10;22.20;;;;;;5067529;28;20456;-61
2022/03/01 01:01:04;;;;;;;50.27;12.73;;;0.00;22.30;;;;;;5061305;28;20469;-60
2022/03/01 01:03:31;;;;;;;47.93;11.57;;;0.00;22.50;;;;;;5068925;28;21192;-61
2022/03/01 01:05:58;;;;;;;50.20;12.90;;;0.00;22.50;;;;;;5071464;28;20482;-62
2022/03/01 01:08:24;;;;;;;54.30;14.57;;;0.00;22.60;;;;;;5070757;28;20456;-60
2022/03/01 01:10:51;;;;;;;51.37;13.57;;;0.00;22.70;;;;;;5070644;28;20468;-60
2022/03/01 01:13:19;;;;;;;53.20;14.73;;;-0.10;22.50;;;;;;5065431;28;21078;-60
2022/03/01 01:15:47;;;;;;;48.57;13.13;;;-0.10;22.60;;;;;;5068187;28;20523;-59
2022/03/01 01:18:14;;;;;;;51.70;13.10;;;-0.10;22.80;;;;;;5081971;28;20462;-60
2022/03/01 01:20:40;;;;;;;49.50;12.93;;;-0.10;23.20;;;;;;5089810;28;20452;-60
2022/03/01 01:23:07;;;;;;;51.03;12.83;;;-0.20;23.40;;;;;;5069031;28;20473;-61
2022/03/01 01:25:35;;;;;;;50.50;12.97;;;-0.20;23.20;;;;;;5067120;28;20563;-60
2022/03/01 01:28:02;;;;;;;50.93;13.03;;;-0.20;23.20;;;;;;5071258;28;20453;-60
2022/03/01 01:30:32;;;;;;;52.23;12.63;;;-0.20;23.70;;;;;;5070421;28;20464;-60
2022/03/01 01:33:01;;;;;;;51.73;12.30;;;-0.30;23.20;;;;;;5070362;28;20460;-60
2022/03/01 01:35:30;;;;;;;48.83;12.43;;;-0.30;23.30;;;;;;5069755;28;20503;-60
2022/03/01 01:37:58;;;;;;;47.53;11.60;;;-0.30;23.40;;;;;;5070978;28;20453;-60
2022/03/01 01:40:27;;;;;;;49.47;12.77;;;-0.30;23.40;;;;;;5069304;28;20468;-59
2022/03/01 01:42:55;;;;;;;49.67;12.87;;;-0.30;23.50;;;;;;5070544;28;20485;-60
2022/03/01 01:45:22;;;;;;;51.30;14.10;;;-0.40;23.40;;;;;;5068795;28;20495;-60
2022/03/01 01:47:51;;;;;;;51.13;12.67;;;-0.40;23.50;;;;;;5070420;28;20464;-60
2022/03/01 01:50:20;;;;;;;53.47;13.07;;;-0.40;23.60;;;;;;5070754;28;20939;-59
2022/03/01 01:52:48;;;;;;;50.47;13.50;;;-0.40;23.70;;;;;;5088340;28;20459;-60
2022/03/01 01:55:19;;;;;;;49.40;13.00;;;-0.40;23.60;;;;;;5075782;28;20908;-60
2022/03/01 01:57:46;;;;;;;49.53;13.13;;;-0.40;23.60;;;;;;5070941;28;20464;-60
2022/03/01 02:00:14;;;;;;;48.90;11.67;;;-0.50;23.80;;;;;;5070062;28;20467;-60
2022/03/01 02:02:41;;;;;;;55.07;13.50;;;-0.50;24.30;;;;;;5071025;28;20487;-59
2022/03/01 02:05:09;;;;;;;47.50;12.27;;;-0.20;24.50;;;;;;5070204;28;20501;-61
2022/03/01 02:07:38;;;;;;;51.00;13.87;;;-0.60;24.30;;;;;;5069387;28;20473;-60
2022/03/01 02:10:07;;;;;;;50.90;14.03;;;-0.60;24.40;;;;;;5068540;28;20466;-61
2022/03/01 02:12:34;;;;;;;55.20;13.53;;;-0.70;24.30;;;;;;5069768;28;20986;-60
2022/03/01 02:15:01;;;;;;;52.07;13.20;;;-0.70;24.50;;;;;;5070191;28;21175;-60
2022/03/01 02:17:29;;;;;;;51.37;13.40;;;-0.70;24.50;;;;;;5069365;28;20824;-60
2022/03/01 02:19:58;;;;;;;48.53;11.87;;;-0.80;24.70;;;;;;5070499;28;20685;-60
2022/03/01 02:22:33;;;;;;;48.77;12.97;;;-0.80;24.70;;;;;;5068290;28;21172;-60
2022/03/01 02:25:00;;;;;;;50.83;12.60;;;-0.80;25.10;;;;;;5069111;28;20484;-60
2022/03/01 02:27:26;;;;;;;50.67;12.37;;;-0.80;25.10;;;;;;5068858;28;20990;-60
2022/03/01 02:29:53;;;;;;;51.60;13.70;;;-0.80;25.00;;;;;;5073634;28;21138;-60
2022/03/01 02:32:20;;;;;;;58.00;15.60;;;-0.90;25.30;;;;;;5069285;28;21194;-60
2022/03/01 02:34:48;;;;;;;56.57;13.73;;;-1.00;25.30;;;;;;5068944;28;20492;-60
2022/03/01 02:37:15;;;;;;;51.00;13.63;;;-1.00;25.60;;;;;;5065883;28;20461;-60
2022/03/01 02:39:43;;;;;;;53.40;13.73;;;-1.00;25.80;;;;;;5067802;28;21053;-61
2022/03/01 02:42:10;;;;;;;53.57;13.23;;;-1.00;26.00;;;;;;5062777;28;20477;-60
2022/03/01 02:44:37;;;;;;;52.67;14.17;;;-1.00;26.40;;;;;;5070159;28;20477;-60
2022/03/01 02:47:04;;;;;;;53.60;14.77;;;-1.00;26.50;;;;;;5068316;28;20467;-60
2022/03/01 02:49:31;;;;;;;55.00;15.00;;;-1.00;26.50;;;;;;5071189;28;20453;-60
2022/03/01 02:51:58;;;;;;;52.13;14.90;;;-1.00;26.70;;;;;;5079375;28;20461;-60
2022/03/01 02:54:24;;;;;;;58.13;15.50;;;-1.00;27.00;;;;;;5066967;28;20488;-60
2022/03/01 02:56:52;;;;;;;57.30;16.13;;;-1.00;27.20;;;;;;5066336;28;20468;-61
2022/03/01 02:59:19;;;;;;;55.00;14.87;;;-1.10;27.30;;;;;;5068349;28;20472;-61
2022/03/01 03:01:46;;;;;;;58.07;15.23;;;-1.10;27.50;;;;;;5067492;28;20488;-61
2022/03/01 03:04:13;;;;;;;55.03;16.63;;;-1.10;27.30;;;;;;5068693;28;20465;-60
2022/03/01 03:06:39;;;;;;;51.80;14.20;;;-1.10;27.20;;;;;;5067341;28;20458;-60
2022/03/01 03:09:06;;;;;;;55.60;14.87;;;-1.10;27.30;;;;;;5069200;28;21158;-60
2022/03/01 03:11:33;;;;;;;52.83;13.47;;;-1.10;27.30;;;;;;5067300;28;20461;-61
2022/03/01 03:14:01;;;;;;;52.03;13.97;;;-1.10;27.10;;;;;;5068961;28;20453;-60
2022/03/01 03:16:28;;;;;;;54.87;15.90;;;-1.10;27.20;;;;;;5063438;28;20495;-61
2022/03/01 03:18:54;;;;;;;59.53;16.00;;;-1.20;27.10;;;;;;5069080;28;20941;-60
2022/03/01 03:21:21;;;;;;;54.40;13.73;;;-1.20;27.20;;;;;;5069032;28;20544;-60
2022/03/01 03:23:48;;;;;;;53.60;16.20;;;-1.20;27.70;;;;;;5068080;28;20507;-60
2022/03/01 03:26:15;;;;;;;54.93;14.60;;;-1.20;28.30;;;;;;5066294;28;20469;-60
2022/03/01 03:28:42;;;;;;;56.43;15.17;;;-1.20;28.70;;;;;;5068760;28;20457;-60
2022/03/01 03:31:10;;;;;;;59.77;14.47;;;-1.20;28.80;;;;;;5069086;28;20473;-60
2022/03/01 03:33:37;;;;;;;52.67;13.23;;;-1.20;28.70;;;;;;5067705;28;20490;-60
2022/03/01 03:36:04;;;;;;;58.30;16.30;;;-1.20;28.70;;;;;;5067591;28;20477;-60
2022/03/01 03:38:31;;;;;;;58.97;15.50;;;-1.20;28.50;;;;;;5063146;28;21105;-61
2022/03/01 03:40:58;;;;;;;51.30;14.17;;;-1.20;28.10;;;;;;5067566;28;20457;-60
2022/03/01 03:43:24;;;;;;;53.97;14.27;;;-1.30;28.00;;;;;;5065110;28;20481;-61
2022/03/01 03:45:51;;;;;;;54.77;15.07;;;-1.30;27.90;;;;;;5066023;28;20567;-61
2022/03/01 03:48:19;;;;;;;50.17;13.77;;;-1.30;27.90;;;;;;5068342;28;20461;-59
2022/03/01 03:50:46;;;;;;;53.90;14.00;;;-1.30;28.20;;;;;;5066731;28;20470;-60
2022/03/01 03:53:13;;;;;;;58.97;14.30;;;-1.40;28.10;;;;;;5059931;28;20507;-60
2022/03/01 03:55:40;;;;;;;56.07;16.27;;;-1.40;28.40;;;;;;5070951;23;20493;-65
2022/03/01 03:58:07;;;;;;;51.67;13.40;;;-1.40;28.40;;;;;;5048320;28;20450;-65
2022/03/01 04:00:34;;;;;;;54.23;13.43;;;-1.40;28.20;;;;;;5047948;28;20466;-67
2022/03/01 04:03:00;;;;;;;57.37;14.43;;;-1.40;28.20;;;;;;5047953;28;20497;-65
2022/03/01 04:05:29;;;;;;;53.57;13.97;;;-1.40;28.60;;;;;;5047043;28;20998;-65
2022/03/01 04:07:56;;;;;;;52.00;12.90;;;-1.40;28.70;;;;;;5048544;28;21020;-65
2022/03/01 04:10:22;;;;;;;51.00;13.07;;;-1.50;28.60;;;;;;5048127;28;20454;-66
2022/03/01 04:12:49;;;;;;;52.77;14.53;;;-1.50;28.70;;;;;;5048061;28;20474;-65
2022/03/01 04:15:16;;;;;;;54.43;13.53;;;-1.50;28.50;;;;;;5046792;28;21053;-66
2022/03/01 04:17:44;;;;;;;51.50;13.77;;;-1.50;28.70;;;;;;5048001;28;20468;-66
2022/03/01 04:20:11;;;;;;;54.07;13.87;;;-1.50;28.80;;;;;;5047851;28;20469;-65
2022/03/01 04:22:40;;;;;;;55.17;13.97;;;-1.60;28.90;;;;;;5047499;28;20478;-65
2022/03/01 04:25:09;;;;;;;57.37;15.50;;;-1.50;29.00;;;;;;5046768;28;20454;-65
2022/03/01 04:27:36;;;;;;;52.77;14.20;;;-1.60;29.00;;;;;;5048043;28;20458;-65
2022/03/01 04:30:03;;;;;;;51.97;13.10;;;-1.50;28.80;;;;;;5047980;28;20464;-65
2022/03/01 04:32:30;;;;;;;55.37;14.57;;;-1.60;28.70;;;;;;5046885;28;20470;-65
2022/03/01 04:34:57;;;;;;;56.10;14.77;;;-1.60;28.60;;;;;;5047940;28;20965;-65
2022/03/01 04:37:24;;;;;;;53.37;13.40;;;-1.60;28.40;;;;;;5048118;28;20465;-65
2022/03/01 04:40:01;;;;;;;56.63;14.37;;;-1.70;28.70;;;;;;5052367;28;20458;-64
2022/03/01 04:42:28;;;;;;;61.87;14.40;;;-1.70;28.70;;;;;;5052588;28;20865;-65
2022/03/01 04:44:55;;;;;;;48.97;12.27;;;-1.70;28.60;;;;;;5052085;28;20552;-65
2022/03/01 04:47:21;;;;;;;52.23;13.00;;;-1.70;28.60;;;;;;5050777;28;20458;-65
2022/03/01 04:49:48;;;;;;;55.33;13.17;;;-1.80;28.50;;;;;;5052080;28;20464;-64
2022/03/01 04:52:15;;;;;;;51.57;14.20;;;-1.80;28.50;;;;;;5050837;28;20696;-65
2022/03/01 04:54:42;;;;;;;53.73;14.87;;;-1.80;28.50;;;;;;5052093;28;20472;-65
2022/03/01 04:57:10;;;;;;;53.07;13.20;;;-1.80;28.50;;;;;;5043500;28;20473;-65
2022/03/01 04:59:37;;;;;;;53.70;14.37;;;-1.80;28.40;;;;;;5031809;28;20462;-64
2022/03/01 05:05:26;;;;;;;55.70;14.90;;;-1.90;28.80;;;;;;5045523;28;20459;-65
2022/03/01 05:07:53;;;;;;;55.67;14.43;;;-1.90;28.70;;;;;;5050117;28;20468;-65
2022/03/01 05:10:21;;;;;;;53.00;13.57;;;-1.90;29.00;;;;;;5050954;28;20461;-65
2022/03/01 05:12:52;;;;;;;52.07;13.00;;;-2.00;29.10;;;;;;5051064;28;21011;-65
2022/03/01 05:15:20;;;;;;;54.70;14.00;;;-2.00;29.20;;;;;;5051808;28;20497;-65
2022/03/01 05:17:48;;;;;;;53.50;13.77;;;-2.00;29.30;;;;;;5033956;28;20845;-65
2022/03/01 05:20:16;;;;;;;56.47;14.60;;;-2.00;29.30;;;;;;5036632;28;20470;-65
2022/03/01 05:22:44;;;;;;;53.93;14.90;;;-2.10;29.40;;;;;;5050089;28;20497;-66
2022/03/01 05:25:12;;;;;;;59.63;13.37;;;-2.10;29.30;;;;;;5049073;28;20464;-65
2022/03/01 05:27:41;;;;;;;53.20;14.70;;;-2.10;29.40;;;;;;5048513;28;20450;-65
2022/03/01 05:30:13;;;;;;;53.90;14.20;;;-2.10;29.50;;;;;;5031490;28;20454;-65
2022/03/01 05:32:41;;;;;;;52.13;13.90;;;-2.20;29.40;;;;;;5050869;28;20453;-65
2022/03/01 05:35:09;;;;;;;56.67;14.93;;;-2.20;29.30;;;;;;5050093;28;20499;-66
2022/03/01 05:37:36;;;;;;;56.50;14.80;;;-2.20;29.40;;;;;;5031532;28;21151;-67
2022/03/01 05:40:04;;;;;;;56.40;12.83;;;-2.30;29.40;;;;;;5049132;28;20469;-65
2022/03/01 05:42:31;;;;;;;57.07;14.00;;;-2.30;29.70;;;;;;5051437;28;20857;-66
2022/03/01 05:44:59;;;;;;;55.20;14.20;;;-2.30;29.70;;;;;;5051305;28;20462;-65
2022/03/01 05:47:27;;;;;;;54.70;13.53;;;-2.30;29.70;;;;;;5051256;28;20543;-64
2022/03/01 05:49:54;;;;;;;60.40;15.00;;;-2.40;29.80;;;;;;5050078;28;20473;-65
2022/03/01 05:52:21;;;;;;;58.10;16.27;;;-2.40;29.90;;;;;;5050326;28;21039;-65
2022/03/01 05:54:48;;;;;;;62.33;15.37;;;-2.40;30.00;;;;;;5051548;28;20469;-65
2022/03/01 05:57:15;;;;;;;55.00;15.00;;;-2.40;30.10;;;;;;5051438;28;20920;-64
2022/03/01 05:59:42;;;;;;;55.30;16.00;;;-2.40;30.20;;;;;;5042525;28;20467;-64
2022/03/01 06:02:09;;;;;;;53.17;14.10;;;-2.40;30.20;;;;;;5030049;28;20497;-64
2022/03/01 06:04:38;;;;;;;54.20;14.37;;;-2.40;30.90;;;;;;5030341;28;20556;-66
2022/03/01 06:07:05;;;;;;;50.67;12.40;;;-2.40;30.70;;;;;;5030241;28;20459;-64
2022/03/01 06:09:32;;;;;;;58.10;13.70;;;-2.40;31.00;;;;;;5033377;28;20466;-65
2022/03/01 06:11:59;;;;;;;55.80;14.03;;;-2.30;31.00;;;;;;5050531;28;20481;-64
2022/03/01 06:14:25;;;;;;;59.70;14.87;;;-2.20;31.00;;;;;;5050147;28;20859;-67
2022/03/01 06:16:52;;;;;;;56.70;13.87;;;-2.10;31.00;;;;;;5050245;28;20851;-65
2022/03/01 06:19:19;;;;;;;54.00;14.13;;;-2.00;30.90;;;;;;5049729;28;20838;-65
2022/03/01 06:21:47;;;;;;;53.70;12.47;;;-1.80;31.00;;;;;;5048862;28;20504;-65
2022/03/01 06:24:14;;;;;;;54.77;13.30;;;-1.60;31.00;;;;;;5049315;28;20486;-65
2022/03/01 06:26:42;;;;;;;52.40;13.03;;;-1.40;30.60;;;;;;5049959;28;20488;-65
2022/03/01 06:29:08;;;;;;;54.20;15.43;;;-1.10;30.20;;;;;;5049748;28;20870;-65
2022/03/01 06:31:35;;;;;;;52.40;13.57;;;-0.90;29.90;;;;;;5042193;28;20484;-65
2022/03/01 06:34:02;;;;;;;52.00;13.80;;;-0.70;29.40;;;;;;5048590;28;20450;-65
2022/03/01 06:36:29;;;;;;;55.40;14.40;;;-0.50;28.80;;;;;;5047686;28;20468;-65
2022/03/01 06:38:57;;;;;;;51.90;14.20;;;-0.20;27.60;;;;;;5048873;28;20468;-65
2022/03/01 06:41:24;;;;;;;50.00;13.10;;;0.20;26.30;;;;;;5049285;28;20998;-66
2022/03/01 06:43:51;;;;;;;50.00;13.77;;;0.80;25.00;;;;;;5049371;28;20486;-65
2022/03/01 06:46:20;;;;;;;48.93;13.00;;;1.30;23.50;;;;;;5049981;28;20473;-65
2022/03/01 06:48:47;;;;;;;53.07;13.80;;;1.60;22.30;;;;;;5049635;28;21201;-65
2022/03/01 06:51:14;;;;;;;51.33;13.07;;;2.00;21.40;;;;;;5049453;28;20478;-67
2022/03/01 06:53:41;;;;;;;50.83;13.17;;;2.30;20.90;;;;;;5048975;28;20458;-64
2022/03/01 06:56:09;;;;;;;47.60;14.27;;;2.70;20.00;;;;;;5049280;28;20470;-67
2022/03/01 06:58:36;;;;;;;48.90;14.13;;;3.30;19.20;;;;;;5048910;28;20465;-65
2022/03/01 07:01:03;;;;;;;48.47;13.17;;;4.00;17.70;;;;;;5048386;28;20474;-65
2022/03/01 07:03:30;;;;;;;49.40;13.77;;;4.60;16.70;;;;;;5048720;28;20486;-65
2022/03/01 07:05:57;;;;;;;46.37;12.07;;;5.10;15.80;;;;;;5048630;28;20476;-66
2022/03/01 07:08:25;;;;;;;47.47;12.90;;;5.50;14.80;;;;;;5049264;28;20464;-66
2022/03/01 07:10:52;;;;;;;52.57;12.77;;;5.70;13.90;;;;;;5049146;28;20462;-66
2022/03/01 07:13:21;;;;;;;47.00;12.10;;;6.00;13.80;;;;;;5049013;28;20851;-67
2022/03/01 07:15:47;;;;;;;46.47;11.90;;;6.20;13.10;;;;;;5048432;28;20616;-65
2022/03/01 07:18:14;;;;;;;44.77;11.70;;;6.30;13.30;;;;;;5049225;28;20462;-67
2022/03/01 07:20:43;;;;;;;46.70;11.60;;;6.50;12.90;;;;;;5048299;28;20831;-66
2022/03/01 07:23:11;;;;;;;48.30;12.43;;;6.70;12.70;;;;;;5048858;28;20513;-66
2022/03/01 07:25:38;;;;;;;48.47;13.13;;;6.90;12.90;;;;;;5048972;28;20623;-66
2022/03/01 07:28:05;;;;;;;43.70;11.50;;;7.20;13.40;;;;;;5048685;28;20458;-66
2022/03/01 07:30:33;;;;;;;44.50;11.07;;;7.50;12.50;;;;;;5048613;28;20458;-66
2022/03/01 07:33:01;;;;;;;44.60;11.73;;;7.70;11.60;;;;;;5047620;28;20484;-67
2022/03/01 07:35:29;;;;;;;45.00;11.10;;;8.00;11.10;;;;;;5048969;28;20979;-66
2022/03/01 07:37:56;;;;;;;41.07;9.50;;;8.50;9.60;;;;;;5048461;28;20460;-67
2022/03/01 07:40:25;;;;;;;46.20;12.10;;;9.10;8.10;;;;;;5048064;28;20461;-67
2022/03/01 07:42:53;;;;;;;42.57;11.30;;;9.70;6.80;;;;;;5048012;28;20474;-67
2022/03/01 07:45:20;;;;;;;47.30;11.93;;;10.10;6.50;;;;;;5048502;28;20836;-68
2022/03/01 07:47:48;;;;;;;44.23;11.33;;;10.30;5.20;;;;;;5048725;28;20497;-66
2022/03/01 07:50:15;;;;;;;42.07;10.63;;;10.30;4.90;;;;;;5048544;28;20458;-68
2022/03/01 07:52:42;;;;;;;42.40;11.90;;;10.40;4.80;;;;;;5047765;28;20478;-65
2022/03/01 07:55:10;;;;;;;42.33;11.03;;;10.70;4.20;;;;;;5049846;28;20470;-66
2022/03/01 07:57:37;;;;;;;40.87;10.17;;;11.40;3.30;;;;;;5048280;28;20522;-67
2022/03/01 08:00:05;;;;;;;39.73;10.07;;;12.50;2.60;;;;;;5047215;28;20561;-66
2022/03/01 08:02:32;;;;;;;40.60;10.37;;;13.70;1.00;;;;;;5047836;28;20458;-66
2022/03/01 08:05:01;;;;;;;40.97;10.40;;;15.00;1.00;;;;;;5047629;28;21051;-66
2022/03/01 08:07:28;;;;;;;41.17;10.70;;;16.10;1.00;;;;;;5047722;28;20462;-66
2022/03/01 08:09:55;;;;;;;39.50;9.50;;;17.30;1.00;;;;;;5047671;28;20957;-66
2022/03/01 08:12:22;;;;;;;39.83;9.80;;;18.20;1.00;;;;;;5046015;28;20702;-66
2022/03/01 08:14:49;;;;;;;36.70;9.17;;;19.30;1.00;;;;;;5047856;28;20510;-66
2022/03/01 08:17:17;;;;;;;36.37;9.30;;;19.90;1.00;;;;;;5047355;28;20989;-66
2022/03/01 08:19:43;;;;;;;39.47;10.50;;;20.50;1.00;;;;;;5048497;28;20469;-67
2022/03/01 08:22:11;;;;;;;36.77;9.50;;;20.90;1.00;;;;;;5047548;28;20586;-65
2022/03/01 08:24:38;;;;;;;42.10;10.40;;;21.30;1.00;;;;;;5048081;28;20559;-66
2022/03/01 08:27:05;;;;;;;37.30;9.97;;;21.80;1.00;;;;;;5047582;28;20457;-68
2022/03/01 08:29:32;;;;;;;36.80;9.20;;;22.80;1.00;;;;;;5047672;28;20460;-67
2022/03/01 08:31:59;;;;;;;36.17;8.90;;;23.40;1.00;;;;;;5047212;28;20485;-67
2022/03/01 08:34:26;;;;;;;38.20;10.70;;;23.40;1.00;;;;;;5047387;28;20974;-69
2022/03/01 08:36:53;;;;;;;35.60;9.80;;;23.90;1.00;;;;;;5047674;28;20457;-66
2022/03/01 08:39:21;;;;;;;34.10;8.33;;;24.30;1.00;;;;;;5047717;28;21025;-67
2022/03/01 08:41:50;;;;;;;36.43;10.00;;;24.10;1.00;;;;;;5047667;28;20484;-67
2022/03/01 08:44:17;;;;;;;34.70;9.20;;;23.80;1.00;;;;;;5047588;28;20482;-67
2022/03/01 08:46:43;;;;;;;35.40;9.87;;;24.60;1.00;;;;;;5047624;28;20458;-67
2022/03/01 08:49:10;;;;;;;34.87;9.20;;;25.60;1.00;;;;;;5035805;28;20462;-67
2022/03/01 08:51:37;;;;;;;34.53;9.10;;;26.80;1.00;;;;;;5027122;28;20482;-68
2022/03/01 08:54:04;;;;;;;34.90;8.40;;;27.50;1.00;;;;;;5027570;28;20461;-67
2022/03/01 08:56:32;;;;;;;35.70;9.70;;;27.50;1.00;;;;;;5027375;28;20470;-67
2022/03/01 08:59:00;;;;;;;33.53;8.93;;;27.50;1.00;;;;;;5028502;28;20486;-67
2022/03/01 09:01:27;;;;;;;36.50;8.67;;;27.50;1.00;;;;;;5026962;28;21077;-67
2022/03/01 09:03:54;;;;;;;33.57;9.23;;;28.10;1.00;;;;;;5027026;28;20871;-68
2022/03/01 09:06:21;;;;;;;33.47;8.53;;;28.90;1.00;;;;;;5028030;28;20463;-68
2022/03/01 09:08:49;;;;;;;32.23;8.30;;;29.90;1.00;;;;;;5027115;28;21087;-68
2022/03/01 09:11:16;;;;;;;32.93;8.80;;;30.70;1.00;;;;;;5038731;28;20846;-68
2022/03/01 09:13:44;;;;;;;32.50;9.20;;;31.10;1.00;;;;;;5047599;28;20857;-67
2022/03/01 09:16:11;;;;;;;33.70;8.60;;;31.40;1.00;;;;;;5047714;28;20465;-68
2022/03/01 09:18:39;;;;;;;31.20;8.53;;;31.50;1.00;;;;;;5047138;28;20469;-67
2022/03/01 09:21:06;;;;;;;33.47;9.30;;;31.50;1.00;;;;;;5047206;28;20540;-68
2022/03/01 09:23:34;;;;;;;32.10;9.20;;;31.60;1.00;;;;;;5048797;28;20466;-68
2022/03/01 09:26:01;;;;;;;32.80;8.40;;;32.00;1.00;;;;;;5051518;28;20496;-67
2022/03/01 09:28:28;;;;;;;30.67;8.43;;;32.60;1.00;;;;;;5051369;28;20457;-67
2022/03/01 09:30:56;;;;;;;32.17;8.70;;;33.10;1.00;;;;;;5050505;28;20509;-68
2022/03/01 09:33:24;;;;;;;30.77;8.60;;;33.60;1.00;;;;;;5051064;28;20464;-68
2022/03/01 09:35:50;;;;;;;33.37;9.37;;;34.30;1.00;;;;;;5051829;28;20485;-68
2022/03/01 09:38:17;;;;;;;33.53;8.73;;;34.80;1.00;;;;;;5050613;28;20549;-68
2022/03/01 09:40:47;;;;;;;31.97;9.23;;;35.30;1.00;;;;;;5050959;28;20465;-68
2022/03/01 09:43:14;;;;;;;32.57;9.90;;;35.40;1.00;;;;;;5050722;28;20977;-68
2022/03/01 09:45:41;;;;;;;31.93;9.40;;;34.80;1.00;;;;;;5050952;28;21104;-68
2022/03/01 09:48:09;;;;;;;30.90;9.40;;;34.30;1.00;;;;;;5050605;28;20470;-68
2022/03/01 09:50:36;;;;;;;32.13;8.70;;;34.30;1.00;;;;;;5050428;28;20864;-67
2022/03/01 09:53:05;;;;;;;32.13;9.30;;;34.20;1.00;;;;;;5050783;28;20480;-67
2022/03/01 09:55:31;;;;;;;34.37;9.80;;;34.30;1.00;;;;;;5049818;28;20548;-67
2022/03/01 09:57:58;;;;;;;32.93;8.87;;;34.10;1.00;;;;;;5049850;28;20462;-68
2022/03/01 10:00:25;;;;;;;33.57;10.03;;;33.50;1.00;;;;;;5045578;28;20458;-68
2022/03/01 10:02:55;;;;;;;32.30;9.73;;;33.30;1.00;;;;;;5050092;28;20481;-69
2022/03/01 10:05:34;;;;;;;32.60;9.33;;;33.20;1.00;;;;;;5050076;28;20539;-68
2022/03/01 10:08:09;;;;;;;33.47;9.33;;;33.70;1.00;;;;;;5050362;28;20565;-68
2022/03/01 10:10:41;;;;;;;31.40;8.97;;;33.40;1.00;;;;;;5050959;28;20900;-68
2022/03/01 10:13:08;;;;;;;32.00;9.50;;;33.70;1.00;;;;;;5050643;28;20454;-68
2022/03/01 10:15:35;;;;;;;33.37;11.03;;;33.80;1.00;;;;;;5050588;28;20454;-67
2022/03/01 10:18:12;;;;;;;30.80;9.60;;;33.50;1.00;;;;;;5050409;28;20985;-68
2022/03/01 10:20:41;;;;;;;33.17;10.07;;;33.50;1.00;;;;;;5050253;28;20557;-67
2022/03/01 10:23:10;;;;;;;33.90;9.57;;;32.80;1.00;;;;;;5049919;28;20943;-68
2022/03/01 10:25:39;;;;;;;31.87;9.50;;;32.50;1.00;;;;;;5050170;28;20906;-68
2022/03/01 10:28:07;;;;;;;31.70;9.57;;;32.90;1.00;;;;;;5049457;28;21004;-68
2022/03/01 10:30:36;;;;;;;32.67;9.97;;;32.70;1.00;;;;;;5048804;28;20473;-68
2022/03/01 10:33:06;;;;;;;34.57;11.20;;;32.40;1.00;;;;;;5049869;28;20827;-68
2022/03/01 10:35:33;;;;;;;36.00;10.20;;;32.80;1.00;;;;;;5049032;28;20497;-68
2022/03/01 10:38:03;;;;;;;32.70;10.20;;;33.40;1.00;;;;;;5050427;28;20553;-69
2022/03/01 10:40:31;;;;;;;32.17;9.97;;;33.30;1.00;;;;;;5049723;28;20481;-67
2022/03/01 10:43:03;;;;;;;33.10;10.40;;;33.10;1.00;;;;;;5050168;28;20480;-68
2022/03/01 10:45:40;;;;;;;34.43;9.97;;;33.50;1.00;;;;;;5049477;28;20481;-67
2022/03/01 10:48:08;;;;;;;33.23;10.07;;;33.20;1.00;;;;;;5049535;28;20847;-69
2022/03/01 10:50:36;;;;;;;32.60;9.27;;;32.50;1.00;;;;;;5049702;28;20458;-68
2022/03/01 10:53:05;;;;;;;32.80;10.23;;;31.90;1.00;;;;;;5049193;28;20481;-68
2022/03/01 10:55:35;;;;;;;33.80;11.00;;;31.70;1.00;;;;;;5049735;28;20462;-67
2022/03/01 10:58:04;;;;;;;32.97;9.90;;;31.40;1.00;;;;;;5049406;28;20460;-69
2022/03/01 11:00:33;;;;;;;33.50;10.20;;;30.80;1.00;;;;;;5048998;28;20462;-67
2022/03/01 11:03:00;;;;;;;34.87;10.73;;;30.40;1.00;;;;;;5048945;28;20474;-67
2022/03/01 11:05:29;;;;;;;33.50;10.43;;;29.70;1.00;;;;;;5049897;28;20482;-68
2022/03/01 11:08:00;;;;;;;36.23;9.87;;;29.50;1.00;;;;;;5049155;28;20454;-67
2022/03/01 11:10:30;;;;;;;33.87;10.20;;;30.10;1.00;;;;;;5048216;28;20462;-69
2022/03/01 11:12:59;;;;;;;32.97;9.43;;;30.80;1.00;;;;;;5049281;28;21061;-69
2022/03/01 11:15:48;;;;;;;32.40;8.63;;;31.10;1.00;;;;;;5049053;28;20453;-68
2022/03/01 11:18:28;;;;;;;33.70;9.57;;;30.70;1.00;;;;;;5049117;28;20488;-67
2022/03/01 11:20:56;;;;;;;33.23;8.90;;;29.80;1.00;;;;;;5049250;28;20458;-67
2022/03/01 11:23:24;;;;;;;34.03;10.10;;;29.90;1.00;;;;;;5048824;28;20457;-66
2022/03/01 11:25:53;;;;;;;33.70;10.53;;;30.00;1.00;;;;;;5048531;28;20488;-69
2022/03/01 11:28:30;;;;;;;32.53;9.03;;;29.90;1.00;;;;;;5049476;28;20490;-68
2022/03/01 11:30:57;;;;;;;32.60;9.87;;;30.10;1.00;;;;;;5048329;28;20465;-68
2022/03/01 11:33:26;;;;;;;34.03;10.07;;;29.70;1.00;;;;;;5046998;28;20454;-68
2022/03/01 11:35:55;;;;;;;32.20;10.10;;;29.60;1.00;;;;;;5041040;28;20451;-68
2022/03/01 11:38:26;;;;;;;32.47;9.30;;;29.50;1.00;;;;;;5028944;28;20463;-67
2022/03/01 11:40:55;;;;;;;34.57;11.00;;;28.50;1.00;;;;;;5028976;28;20948;-68
2022/03/01 11:43:26;;;;;;;34.30;9.90;;;27.60;1.00;;;;;;5028591;28;20554;-67
2022/03/01 11:45:54;;;;;;;34.20;10.27;;;26.70;1.00;;;;;;5028136;28;20478;-69
2022/03/01 11:48:24;;;;;;;34.90;9.67;;;26.30;1.00;;;;;;5027975;28;21022;-68
2022/03/01 11:50:57;;;;;;;35.30;9.77;;;25.60;1.00;;;;;;5030399;28;20462;-68
2022/03/01 11:53:25;;;;;;;33.37;8.83;;;24.80;1.00;;;;;;5028568;28;20451;-68
2022/03/01 11:55:56;;;;;;;34.93;9.43;;;24.40;1.00;;;;;;5027995;28;20467;-67
2022/03/01 11:58:24;;;;;;;36.30;10.40;;;24.30;1.00;;;;;;5028852;28;20542;-69
2022/03/01 12:00:52;;;;;;;34.80;9.07;;;24.40;1.00;;;;;;5027794;28;20467;-67
2022/03/01 12:03:22;;;;;;;38.47;9.93;;;24.40;1.00;;;;;;5033079;28;20449;-68
2022/03/01 12:05:50;;;;;;;36.10;10.07;;;24.30;1.00;;;;;;5046485;28;20484;-67
2022/03/01 12:08:18;;;;;;;36.63;9.90;;;23.90;1.00;;;;;;5028484;28;20466;-70
2022/03/01 12:10:54;;;;;;;34.93;10.03;;;23.60;1.00;;;;;;5029053;28;20465;-68
2022/03/01 12:13:22;;;;;;;36.23;9.80;;;23.20;1.00;;;;;;5027920;28;20838;-69
2022/03/01 12:15:56;;;;;;;36.50;10.00;;;22.80;1.00;;;;;;5027879;28;20549;-69
2022/03/01 12:18:30;;;;;;;34.50;9.70;;;22.60;1.00;;;;;;5027382;28;20455;-69
2022/03/01 12:21:03;;;;;;;35.07;9.90;;;22.60;1.00;;;;;;5027628;28;20978;-68
2022/03/01 12:23:31;;;;;;;37.60;9.60;;;22.70;1.00;;;;;;5029031;28;20582;-67
2022/03/01 12:26:02;;;;;;;35.33;10.00;;;23.00;1.00;;;;;;5039374;28;20471;-69
2022/03/01 12:28:35;;;;;;;35.60;10.03;;;23.20;1.00;;;;;;5028716;28;20451;-69
2022/03/01 12:31:08;;;;;;;35.10;9.93;;;23.20;1.00;;;;;;5027095;28;20895;-69
2022/03/01 12:33:35;;;;;;;33.23;9.43;;;23.40;1.00;;;;;;5043915;28;20591;-68
2022/03/01 12:36:03;;;;;;;34.87;9.37;;;23.30;1.00;;;;;;5032392;28;21002;-68
2022/03/01 12:38:32;;;;;;;35.10;9.40;;;23.10;1.00;;;;;;5045109;28;20466;-68
2022/03/01 12:41:10;;;;;;;36.73;9.77;;;23.00;1.00;;;;;;5049032;28;20477;-69
2022/03/01 12:43:37;;;;;;;36.27;9.50;;;22.30;1.00;;;;;;5048404;28;20484;-68